Time;durP1;ratioP1;P1;durP2;ratioP2;P2;SDS_P1;SDS_P2;PMS_P1;PMS_P2;Temp;Humidity;BMP_temperature;BMP_pressure;BME280_temperature;BME280_humidity;BME280_pressure;Samples;Min_cycle;Max_cycle;Signal;HPM_P1;HPM_P2
2024/02/23 05:01:25;;;;;;;1.00;0.90;;;7.70;97.30;;;;;;5565860;23;20557;-62
2024/02/23 05:03:50;;;;;;;1.00;0.90;;;7.70;97.30;;;;;;4956362;28;20440;-62
2024/02/23 05:06:16;;;;;;;0.90;0.80;;;7.60;97.30;;;;;;4945087;28;20191;-62
2024/02/23 05:08:42;;;;;;;0.90;0.80;;;7.60;97.30;;;;;;4943516;28;20187;-62
2024/02/23 05:11:07;;;;;;;1.10;1.00;;;7.50;97.30;;;;;;4933448;28;20211;-62
2024/02/23 05:13:32;;;;;;;1.10;1.00;;;7.50;97.30;;;;;;4933611;29;20176;-62
2024/02/23 05:15:59;;;;;;;1.23;1.20;;;7.50;97.30;;;;;;4933154;29;20203;-63
2024/02/23 05:18:25;;;;;;;1.00;0.90;;;7.50;97.30;;;;;;4931660;29;20862;-63
2024/02/23 05:20:50;;;;;;;0.90;0.80;;;7.50;97.30;;;;;;4930329;29;20208;-63
2024/02/23 05:23:16;;;;;;;0.90;0.80;;;7.50;97.30;;;;;;4931624;29;20195;-63
2024/02/23 05:25:42;;;;;;;0.90;0.80;;;7.50;97.30;;;;;;4930176;29;20239;-63
2024/02/23 05:28:07;;;;;;;0.93;0.83;;;7.50;97.30;;;;;;4931319;29;20842;-64
2024/02/23 05:30:33;;;;;;;1.00;0.90;;;7.60;97.30;;;;;;4931104;29;20258;-63
2024/02/23 05:32:59;;;;;;;1.10;1.00;;;7.70;97.30;;;;;;4931557;29;20224;-62
2024/02/23 05:35:26;;;;;;;1.07;1.00;;;7.70;97.30;;;;;;4928696;29;21043;-62
2024/02/23 05:37:51;;;;;;;0.90;0.80;;;7.70;97.30;;;;;;4932123;29;20526;-62
2024/02/23 05:40:17;;;;;;;0.90;0.80;;;7.70;97.30;;;;;;4930888;29;20515;-61
2024/02/23 05:42:43;;;;;;;0.90;0.80;;;7.60;97.30;;;;;;4931264;29;20267;-63
2024/02/23 05:45:09;;;;;;;1.00;0.90;;;7.60;97.30;;;;;;4932256;29;20215;-63
2024/02/23 05:47:36;;;;;;;1.00;0.90;;;7.60;97.30;;;;;;4931769;29;20195;-66
2024/02/23 05:50:03;;;;;;;1.00;0.90;;;7.60;97.30;;;;;;4929972;29;20423;-63
2024/02/23 05:52:32;;;;;;;1.00;0.90;;;7.60;97.30;;;;;;4928786;29;20493;-63
2024/02/23 05:54:59;;;;;;;0.90;0.80;;;7.50;97.30;;;;;;4931152;29;20439;-64
2024/02/23 05:57:28;;;;;;;1.00;0.90;;;7.50;97.30;;;;;;4929401;29;20458;-63
2024/02/23 05:59:55;;;;;;;0.90;0.80;;;7.40;97.30;;;;;;4927973;29;20483;-64
2024/02/23 06:02:21;;;;;;;0.90;0.80;;;7.40;97.30;;;;;;4929706;29;20471;-64
2024/02/23 06:04:47;;;;;;;1.00;0.90;;;7.30;97.30;;;;;;4928649;29;20431;-64
2024/02/23 06:07:15;;;;;;;1.83;1.73;;;7.30;97.30;;;;;;4935954;29;20652;-63
2024/02/23 06:09:40;;;;;;;1.00;0.90;;;7.30;97.30;;;;;;4926829;29;20188;-64
2024/02/23 06:12:06;;;;;;;9.13;2.90;;;7.20;97.30;;;;;;4930339;29;20838;-63
2024/02/23 06:14:32;;;;;;;1.10;1.00;;;7.20;97.30;;;;;;4927403;29;20203;-63
2024/02/23 06:16:57;;;;;;;0.90;0.80;;;7.20;97.30;;;;;;4928889;29;20932;-63
2024/02/23 06:19:23;;;;;;;0.90;0.80;;;7.10;97.30;;;;;;4929312;29;20180;-63
2024/02/23 06:21:49;;;;;;;0.90;0.80;;;7.10;97.30;;;;;;4935066;29;20355;-63
2024/02/23 06:24:16;;;;;;;1.00;0.90;;;7.10;97.30;;;;;;4958486;23;20973;-68
2024/02/23 06:26:41;;;;;;;1.20;1.10;;;7.10;97.30;;;;;;4948806;28;20503;-68
2024/02/23 06:29:11;;;;;;;0.97;0.87;;;7.10;97.30;;;;;;4946142;28;20423;-70
2024/02/23 06:31:36;;;;;;;1.00;0.90;;;7.10;97.30;;;;;;4926918;28;20244;-77
2024/02/23 06:34:02;;;;;;;1.67;1.60;;;7.00;97.30;;;;;;4928923;29;20424;-68
2024/02/23 06:36:27;;;;;;;1.00;0.90;;;7.00;97.30;;;;;;4926412;29;20435;-68
2024/02/23 06:38:53;;;;;;;1.00;0.90;;;7.00;97.30;;;;;;4927767;29;20657;-70
2024/02/23 06:41:19;;;;;;;1.00;0.90;;;7.00;97.30;;;;;;4929864;29;20212;-69
2024/02/23 06:43:44;;;;;;;0.90;0.80;;;7.00;97.30;;;;;;4930660;28;20200;-66
2024/02/23 06:46:10;;;;;;;1.03;0.93;;;7.00;97.30;;;;;;4930739;29;20211;-68
2024/02/23 06:48:36;;;;;;;1.00;0.90;;;7.10;97.30;;;;;;4928173;29;20251;-69
2024/02/23 06:51:03;;;;;;;0.90;0.80;;;7.00;97.30;;;;;;4932609;29;20200;-68
2024/02/23 06:53:29;;;;;;;1.00;0.90;;;7.10;97.30;;;;;;4932062;29;20447;-68
2024/02/23 06:55:54;;;;;;;0.90;0.80;;;7.10;97.30;;;;;;4932732;29;20442;-67
2024/02/23 06:58:20;;;;;;;1.20;1.10;;;7.10;97.30;;;;;;4933574;29;20574;-69
2024/02/23 07:00:46;;;;;;;1.00;0.90;;;7.10;97.30;;;;;;4931362;29;20212;-68
2024/02/23 07:03:11;;;;;;;0.83;0.73;;;7.10;97.30;;;;;;4934000;29;20600;-68
2024/02/23 07:05:37;;;;;;;1.00;0.90;;;7.10;97.30;;;;;;4933062;29;20466;-68
2024/02/23 07:08:03;;;;;;;2.00;1.37;;;7.10;97.30;;;;;;4932678;29;20187;-68
2024/02/23 07:10:28;;;;;;;1.00;0.90;;;7.10;97.30;;;;;;4933960;29;20207;-69
2024/02/23 07:12:55;;;;;;;1.10;1.00;;;7.10;97.30;;;;;;4932832;29;20695;-67
2024/02/23 07:15:21;;;;;;;0.90;0.80;;;7.10;97.30;;;;;;4932768;29;20270;-69
2024/02/23 07:17:47;;;;;;;24.63;1.50;;;7.10;97.30;;;;;;4934220;29;20873;-67
2024/02/23 07:20:13;;;;;;;1.37;1.27;;;7.10;97.30;;;;;;4931552;29;20184;-67
2024/02/23 07:22:38;;;;;;;1.00;0.90;;;7.10;97.30;;;;;;4924753;29;20238;-67
2024/02/23 07:25:05;;;;;;;1.00;0.90;;;7.20;97.30;;;;;;4932567;29;20459;-68
2024/02/23 07:27:31;;;;;;;1.00;0.90;;;7.20;97.30;;;;;;4934427;29;20207;-69
2024/02/23 07:29:57;;;;;;;0.90;0.80;;;7.20;97.30;;;;;;4934116;29;20783;-69
2024/02/23 07:32:23;;;;;;;1.00;1.00;;;7.20;97.30;;;;;;4932197;29;20215;-69
2024/02/23 07:34:49;;;;;;;4.17;1.20;;;7.20;97.30;;;;;;4933608;29;20203;-67
2024/02/23 07:37:15;;;;;;;1.00;0.90;;;7.20;97.30;;;;;;4935152;29;20719;-66
2024/02/23 07:39:40;;;;;;;1.00;0.90;;;7.20;97.30;;;;;;4936459;29;20419;-66
2024/02/23 07:42:08;;;;;;;0.90;0.80;;;7.20;97.30;;;;;;4931959;29;20207;-66
2024/02/23 07:44:33;;;;;;;1.93;1.77;;;7.20;97.30;;;;;;4934863;29;20186;-68
2024/02/23 07:46:59;;;;;;;0.90;0.80;;;7.20;97.30;;;;;;4931999;29;20526;-69
2024/02/23 07:49:25;;;;;;;0.90;0.90;;;7.20;97.30;;;;;;4934741;29;20199;-66
2024/02/23 07:51:50;;;;;;;1.47;1.27;;;7.20;97.30;;;;;;4926694;29;20243;-68
2024/02/23 07:54:16;;;;;;;0.90;0.80;;;7.20;97.30;;;;;;4933231;29;20865;-68
2024/02/23 07:56:41;;;;;;;0.90;0.80;;;7.20;97.30;;;;;;4931610;29;20251;-69
2024/02/23 07:59:07;;;;;;;0.90;0.80;;;7.20;97.30;;;;;;4934552;29;20223;-67
2024/02/23 08:01:34;;;;;;;1.17;1.07;;;7.20;97.30;;;;;;4933112;28;20231;-68
2024/02/23 08:03:59;;;;;;;3.37;2.43;;;7.30;97.30;;;;;;4933147;29;20446;-70
2024/02/23 08:06:25;;;;;;;1.00;0.90;;;7.20;97.30;;;;;;4934081;29;20431;-67
2024/02/23 08:08:53;;;;;;;1.00;0.90;;;7.20;97.30;;;;;;4925213;29;20234;-70
2024/02/23 08:11:19;;;;;;;1.10;1.00;;;7.20;97.30;;;;;;4932823;29;20447;-68
2024/02/23 08:13:44;;;;;;;1.33;1.23;;;7.20;96.80;;;;;;4932918;29;20800;-68
2024/02/23 08:16:10;;;;;;;1.20;1.10;;;7.30;96.90;;;;;;4934144;29;20250;-69
2024/02/23 08:18:36;;;;;;;1.10;1.00;;;7.30;96.50;;;;;;4932391;29;20652;-67
2024/02/23 08:21:02;;;;;;;1.43;1.33;;;7.30;96.70;;;;;;4931539;29;20203;-68
2024/02/23 08:23:29;;;;;;;0.97;0.87;;;7.30;96.10;;;;;;4932173;29;20491;-67
2024/02/23 08:25:56;;;;;;;1.00;0.90;;;7.40;96.20;;;;;;4932528;29;20439;-68
2024/02/23 08:28:22;;;;;;;1.00;0.90;;;7.40;95.00;;;;;;4932329;29;20836;-68
2024/02/23 08:30:48;;;;;;;3.33;1.93;;;7.50;94.80;;;;;;4931197;29;20456;-67
2024/02/23 08:33:14;;;;;;;0.90;0.80;;;7.50;94.70;;;;;;4930882;29;20485;-67
2024/02/23 08:35:39;;;;;;;0.90;0.80;;;7.60;94.30;;;;;;4930671;29;20184;-69
2024/02/23 08:38:05;;;;;;;1.00;0.90;;;7.60;94.30;;;;;;4931060;29;20184;-68
2024/02/23 08:40:31;;;;;;;1.00;0.90;;;7.70;93.70;;;;;;4932479;29;20292;-68
2024/02/23 08:42:56;;;;;;;0.90;0.80;;;7.70;93.60;;;;;;4931860;29;20191;-69
2024/02/23 08:45:22;;;;;;;0.90;0.80;;;7.80;93.90;;;;;;4930649;29;20184;-67
2024/02/23 08:47:47;;;;;;;1.10;1.00;;;7.90;93.60;;;;;;4931215;29;20196;-67
2024/02/23 08:50:14;;;;;;;0.90;0.80;;;7.90;94.00;;;;;;4931158;29;20188;-67
2024/02/23 08:52:39;;;;;;;1.00;0.90;;;8.00;93.20;;;;;;4931766;29;20246;-67
2024/02/23 08:55:05;;;;;;;1.10;1.00;;;8.00;92.70;;;;;;4930817;29;20459;-70
2024/02/23 08:57:31;;;;;;;1.00;0.90;;;8.00;92.90;;;;;;4932090;29;20558;-67
2024/02/23 08:59:58;;;;;;;1.00;0.90;;;8.00;91.80;;;;;;4931098;29;20195;-67
2024/02/23 09:02:24;;;;;;;0.93;0.83;;;8.00;92.50;;;;;;4930526;29;20348;-68
2024/02/23 09:04:49;;;;;;;0.90;0.80;;;8.10;92.40;;;;;;4932425;29;20424;-67
2024/02/23 09:07:15;;;;;;;1.03;0.93;;;8.10;91.90;;;;;;4932849;29;20491;-67
2024/02/23 09:09:40;;;;;;;1.00;0.90;;;8.10;91.70;;;;;;4931857;29;20199;-68
2024/02/23 09:12:10;;;;;;;1.67;1.43;;;8.10;91.50;;;;;;4931776;29;20731;-67
2024/02/23 09:14:37;;;;;;;1.20;1.10;;;8.20;91.90;;;;;;4930684;29;20449;-67
2024/02/23 09:17:04;;;;;;;1.13;1.03;;;8.30;91.50;;;;;;4930492;29;20936;-68
2024/02/23 09:19:29;;;;;;;1.00;0.90;;;8.40;91.30;;;;;;4931851;29;20420;-68
2024/02/23 09:21:55;;;;;;;0.90;0.80;;;8.40;90.70;;;;;;4931846;29;20455;-66
2024/02/23 09:24:21;;;;;;;4.73;1.30;;;8.40;90.80;;;;;;4930290;29;20755;-68
2024/02/23 09:26:47;;;;;;;1.00;0.90;;;8.40;90.10;;;;;;4930654;29;20560;-67
2024/02/23 09:29:13;;;;;;;0.90;0.80;;;8.40;90.70;;;;;;4931852;29;20196;-67
2024/02/23 09:31:38;;;;;;;1.00;0.90;;;8.40;90.80;;;;;;4931607;29;20475;-68
2024/02/23 09:34:04;;;;;;;1.20;1.10;;;8.40;91.00;;;;;;4930417;29;20668;-67
2024/02/23 09:36:30;;;;;;;0.90;0.80;;;8.50;90.70;;;;;;4930562;29;20270;-67
2024/02/23 09:38:55;;;;;;;0.90;0.80;;;8.50;90.30;;;;;;4936317;29;20663;-67
2024/02/23 09:41:22;;;;;;;17.27;3.33;;;8.60;91.00;;;;;;4930529;29;20459;-67
2024/02/23 09:43:52;;;;;;;0.90;0.80;;;8.60;90.00;;;;;;4931641;29;20190;-67
2024/02/23 09:46:18;;;;;;;1.17;1.07;;;8.70;90.60;;;;;;4930699;29;20664;-67
2024/02/23 09:48:44;;;;;;;0.90;0.80;;;8.60;90.90;;;;;;4931033;29;20423;-67
2024/02/23 09:51:12;;;;;;;0.80;0.70;;;8.60;91.30;;;;;;4930837;29;20483;-66
2024/02/23 09:53:38;;;;;;;1.00;0.90;;;8.70;91.00;;;;;;4930715;29;20446;-66
2024/02/23 09:56:05;;;;;;;2.70;2.50;;;8.70;91.70;;;;;;4929467;29;20439;-68
2024/02/23 09:58:35;;;;;;;0.90;0.80;;;8.80;91.70;;;;;;4931119;29;20499;-66
2024/02/23 10:01:02;;;;;;;0.90;0.80;;;8.80;90.40;;;;;;4935513;29;20449;-67
2024/02/23 10:03:30;;;;;;;1.27;1.17;;;8.80;90.20;;;;;;4933323;29;20447;-66
2024/02/23 10:06:01;;;;;;;1.33;1.17;;;8.90;90.30;;;;;;4937136;29;20467;-67
2024/02/23 10:08:29;;;;;;;1.23;1.13;;;8.80;88.90;;;;;;4929756;29;20469;-68
2024/02/23 10:10:55;;;;;;;1.00;0.90;;;8.60;89.70;;;;;;4931528;29;20443;-66
2024/02/23 10:13:26;;;;;;;0.90;0.80;;;8.80;90.40;;;;;;4930059;29;20478;-68
2024/02/23 10:15:52;;;;;;;1.00;0.90;;;8.80;88.70;;;;;;4930311;29;20970;-66
2024/02/23 10:18:19;;;;;;;1.10;1.00;;;8.70;89.20;;;;;;4930250;29;20460;-66
2024/02/23 10:20:44;;;;;;;12.53;1.93;;;8.80;89.10;;;;;;4930965;29;21014;-66
2024/02/23 10:23:10;;;;;;;0.87;0.77;;;9.00;89.60;;;;;;4931236;29;20424;-66
2024/02/23 10:25:36;;;;;;;0.90;0.80;;;9.10;89.10;;;;;;4936522;29;20188;-66
2024/02/23 10:28:03;;;;;;;0.90;0.80;;;9.10;88.00;;;;;;4945366;29;20202;-67
2024/02/23 10:30:28;;;;;;;1.00;0.90;;;9.00;87.70;;;;;;4936909;29;20989;-67
2024/02/23 10:32:58;;;;;;;0.90;0.80;;;9.00;88.70;;;;;;4935052;29;20467;-66
2024/02/23 10:35:25;;;;;;;1.00;0.90;;;9.10;88.50;;;;;;4943117;29;20176;-69
2024/02/23 10:37:52;;;;;;;0.90;0.80;;;9.20;88.80;;;;;;4933674;29;20428;-71
2024/02/23 10:40:19;;;;;;;0.90;0.80;;;9.10;88.40;;;;;;4942877;29;20430;-68
2024/02/23 10:42:51;;;;;;;1.30;1.20;;;9.10;88.70;;;;;;4934998;29;20789;-66
2024/02/23 10:45:18;;;;;;;1.00;0.90;;;9.10;89.00;;;;;;4933576;29;21014;-66
2024/02/23 10:47:44;;;;;;;1.27;0.93;;;9.10;89.00;;;;;;4933971;29;20432;-66
2024/02/23 10:50:14;;;;;;;6.63;1.40;;;9.20;89.40;;;;;;4934333;29;20422;-69
2024/02/23 10:52:41;;;;;;;1.00;0.90;;;9.20;89.00;;;;;;4934333;29;20980;-67
2024/02/23 10:55:09;;;;;;;1.03;0.93;;;9.20;89.10;;;;;;4934423;29;20486;-67
2024/02/23 10:57:38;;;;;;;0.90;0.80;;;9.20;89.70;;;;;;4933323;29;20435;-69
2024/02/23 11:00:15;;;;;;;1.37;1.27;;;9.30;89.10;;;;;;4934450;29;20770;-67
2024/02/23 11:02:46;;;;;;;0.90;0.80;;;9.30;89.40;;;;;;4934238;29;20943;-67
2024/02/23 11:05:13;;;;;;;1.03;0.93;;;9.20;88.30;;;;;;4934070;29;20447;-67
2024/02/23 11:07:39;;;;;;;1.03;0.93;;;9.10;88.40;;;;;;4934184;29;20950;-69
2024/02/23 11:10:05;;;;;;;0.90;0.80;;;9.00;88.20;;;;;;4945600;28;20525;-70
2024/02/23 11:12:31;;;;;;;1.77;1.23;;;8.90;88.20;;;;;;4935858;29;20502;-69
2024/02/23 11:14:58;;;;;;;0.90;0.80;;;9.00;89.00;;;;;;4934394;29;20931;-68
2024/02/23 11:17:27;;;;;;;0.90;0.80;;;8.90;88.20;;;;;;4936877;29;20622;-68
2024/02/23 11:19:56;;;;;;;1.20;1.10;;;8.90;88.40;;;;;;4932559;29;20527;-68
2024/02/23 11:22:32;;;;;;;1.00;0.90;;;8.90;87.90;;;;;;4934110;29;20467;-68
2024/02/23 11:25:06;;;;;;;0.90;0.80;;;8.90;88.50;;;;;;4930462;29;20458;-68
2024/02/23 11:27:33;;;;;;;1.47;1.37;;;8.90;88.50;;;;;;4945073;29;20557;-69
2024/02/23 11:30:03;;;;;;;1.10;1.00;;;9.00;87.70;;;;;;4934164;29;20431;-69
2024/02/23 11:32:44;;;;;;;1.00;0.90;;;8.90;88.30;;;;;;4933623;29;20475;-68
2024/02/23 11:35:15;;;;;;;1.00;0.90;;;9.00;88.70;;;;;;4937434;29;20430;-68
2024/02/23 11:37:47;;;;;;;4.63;2.17;;;9.00;88.70;;;;;;4935772;29;20415;-68
2024/02/23 11:40:13;;;;;;;1.00;0.90;;;9.00;88.30;;;;;;4932392;29;20547;-67
2024/02/23 11:42:41;;;;;;;1.07;1.00;;;9.00;88.50;;;;;;4932425;29;20428;-67
2024/02/23 11:45:07;;;;;;;0.90;0.80;;;9.10;88.50;;;;;;4938268;29;20454;-67
2024/02/23 11:47:33;;;;;;;1.17;1.07;;;9.10;88.00;;;;;;4936843;29;20480;-69
2024/02/23 11:49:58;;;;;;;8.73;2.77;;;9.00;87.90;;;;;;4941038;29;20424;-67
2024/02/23 11:52:24;;;;;;;1.60;1.57;;;9.00;88.60;;;;;;4932110;29;20222;-67
2024/02/23 11:54:49;;;;;;;3.80;1.03;;;9.10;88.80;;;;;;4933465;29;20184;-67
2024/02/23 11:57:15;;;;;;;4.73;1.07;;;9.20;88.90;;;;;;4932218;29;20191;-67
2024/02/23 11:59:41;;;;;;;1.53;0.90;;;9.20;88.30;;;;;;4933130;29;20219;-68
2024/02/23 12:02:07;;;;;;;1.07;0.97;;;9.20;88.80;;;;;;4932188;29;20200;-67
2024/02/23 12:04:33;;;;;;;1.10;1.10;;;9.30;89.00;;;;;;4931949;29;20275;-68
2024/02/23 12:06:59;;;;;;;0.90;0.80;;;9.30;88.70;;;;;;4928915;29;20886;-67
2024/02/23 12:09:25;;;;;;;0.80;0.70;;;9.40;88.40;;;;;;4917131;29;20681;-67
2024/02/23 12:11:51;;;;;;;1.00;0.87;;;9.40;88.30;;;;;;4928419;29;20511;-68
2024/02/23 12:14:17;;;;;;;1.00;1.00;;;9.20;87.10;;;;;;4930867;29;20274;-67
2024/02/23 12:16:43;;;;;;;1.47;1.37;;;9.10;87.70;;;;;;4931802;29;20447;-70
2024/02/23 12:19:08;;;;;;;1.10;0.97;;;9.10;88.00;;;;;;4944698;29;20837;-69
2024/02/23 12:21:36;;;;;;;1.67;1.20;;;9.10;88.10;;;;;;4935510;28;20262;-69
2024/02/23 12:24:06;;;;;;;1.57;1.43;;;9.10;87.90;;;;;;4921357;29;20228;-67
2024/02/23 12:26:31;;;;;;;1.67;1.53;;;9.10;87.50;;;;;;4922152;29;20435;-67
2024/02/23 12:31:26;;;;;;;0.90;0.80;;;9.20;86.70;;;;;;4942952;28;20398;-69
2024/02/23 12:33:52;;;;;;;2.50;1.27;;;9.10;86.40;;;;;;4959450;28;20877;-69
2024/02/23 12:36:18;;;;;;;1.30;1.20;;;9.00;86.50;;;;;;4938168;28;20176;-68
2024/02/23 12:38:43;;;;;;;1.53;1.40;;;9.00;86.40;;;;;;4948101;28;20190;-71
2024/02/23 12:41:09;;;;;;;1.00;0.90;;;9.00;86.90;;;;;;4951631;28;20638;-69
2024/02/23 12:43:35;;;;;;;2.80;2.50;;;9.00;87.50;;;;;;4947620;28;20558;-70
2024/02/23 12:46:03;;;;;;;1.20;1.10;;;9.10;88.00;;;;;;4958667;28;20554;-69
2024/02/23 12:48:28;;;;;;;0.80;0.70;;;9.10;87.70;;;;;;4958508;28;20246;-69
2024/02/23 12:50:54;;;;;;;18.33;2.10;;;9.10;87.60;;;;;;4950857;28;20962;-70
2024/02/23 12:53:38;;;;;;;1.10;1.00;;;9.10;88.30;;;;;;4954248;28;20222;-69
2024/02/23 12:56:09;;;;;;;2.30;1.10;;;9.10;88.50;;;;;;4941488;28;20174;-69
2024/02/23 12:58:39;;;;;;;1.00;0.90;;;9.10;88.90;;;;;;4951402;28;20422;-68
2024/02/23 13:01:06;;;;;;;1.10;1.00;;;9.10;88.30;;;;;;4954366;28;20489;-68
2024/02/23 13:03:33;;;;;;;0.90;0.80;;;9.10;88.40;;;;;;4962894;28;20419;-69
2024/02/23 13:05:58;;;;;;;1.33;1.23;;;9.10;88.60;;;;;;4958574;28;20439;-69
2024/02/23 13:08:25;;;;;;;1.10;1.00;;;9.10;88.30;;;;;;4947382;28;20427;-70
2024/02/23 13:10:51;;;;;;;1.73;1.20;;;9.10;87.90;;;;;;4948694;28;20215;-72
2024/02/23 13:13:18;;;;;;;1.13;1.03;;;9.10;87.40;;;;;;4949571;28;20825;-68
2024/02/23 13:15:44;;;;;;;22.03;2.80;;;9.00;87.50;;;;;;4950353;28;20860;-71
2024/02/23 13:18:10;;;;;;;1.10;1.00;;;9.00;87.20;;;;;;4945183;28;20427;-71
2024/02/23 13:20:41;;;;;;;2.00;1.33;;;9.00;87.10;;;;;;4944833;28;20635;-69
2024/02/23 13:23:08;;;;;;;1.20;1.10;;;9.00;87.40;;;;;;4954190;28;20189;-70
2024/02/23 13:25:34;;;;;;;0.93;0.83;;;9.00;87.50;;;;;;4953513;28;20806;-69
2024/02/23 13:27:59;;;;;;;1.03;0.93;;;9.00;87.50;;;;;;4950797;28;20437;-68
2024/02/23 13:30:25;;;;;;;0.80;0.70;;;9.00;87.40;;;;;;4948988;28;20470;-69
2024/02/23 13:32:51;;;;;;;1.03;0.93;;;8.90;87.80;;;;;;4957293;28;20678;-71
2024/02/23 13:35:17;;;;;;;0.90;0.80;;;9.00;88.30;;;;;;4957489;28;20175;-71
2024/02/23 13:37:43;;;;;;;0.90;0.80;;;9.00;88.10;;;;;;4949348;28;20434;-69
2024/02/23 13:40:09;;;;;;;0.90;0.80;;;8.90;88.10;;;;;;4946903;28;20249;-69
2024/02/23 13:42:35;;;;;;;2.50;1.10;;;9.00;88.70;;;;;;4944931;28;20179;-72
2024/02/23 13:45:01;;;;;;;0.90;0.80;;;9.00;88.50;;;;;;4945400;28;20462;-68
2024/02/23 13:47:26;;;;;;;0.97;0.87;;;8.90;88.50;;;;;;4946419;28;20454;-69
2024/02/23 13:49:52;;;;;;;0.90;0.80;;;8.90;88.90;;;;;;4941143;28;20336;-67
2024/02/23 13:52:18;;;;;;;0.90;0.80;;;8.90;89.10;;;;;;4930614;28;20204;-66
2024/02/23 13:54:43;;;;;;;1.00;0.90;;;8.90;89.40;;;;;;4939959;28;20553;-69
2024/02/23 13:57:09;;;;;;;3.93;1.20;;;8.90;89.70;;;;;;4946544;28;20176;-66
2024/02/23 13:59:34;;;;;;;1.30;1.20;;;9.00;89.60;;;;;;4948510;28;20178;-66
2024/02/23 14:02:00;;;;;;;1.03;0.90;;;9.00;89.30;;;;;;4951050;28;20209;-66
2024/02/23 14:04:26;;;;;;;9.70;3.53;;;9.00;89.90;;;;;;4950599;28;20179;-66
2024/02/23 14:06:51;;;;;;;1.27;1.17;;;9.00;89.50;;;;;;4947793;28;20229;-67
2024/02/23 14:09:17;;;;;;;1.20;1.10;;;9.00;89.80;;;;;;4949444;28;20191;-66
2024/02/23 14:11:42;;;;;;;1.30;1.20;;;9.00;88.60;;;;;;4954076;28;20229;-69
2024/02/23 14:14:08;;;;;;;1.10;1.00;;;8.90;88.90;;;;;;4944754;28;20267;-66
2024/02/23 14:16:34;;;;;;;1.00;0.90;;;9.00;89.20;;;;;;4938710;28;20469;-70
2024/02/23 14:19:00;;;;;;;1.73;1.63;;;9.00;89.60;;;;;;4949624;28;20179;-67
2024/02/23 14:21:26;;;;;;;0.93;0.83;;;9.00;89.60;;;;;;4946638;28;20501;-67
2024/02/23 14:23:52;;;;;;;0.90;0.80;;;9.00;89.10;;;;;;4946676;28;20266;-66
2024/02/23 14:26:17;;;;;;;1.00;0.90;;;8.90;89.30;;;;;;4949121;28;20172;-67
2024/02/23 14:28:43;;;;;;;0.97;0.87;;;8.90;88.90;;;;;;4950747;28;20266;-67
2024/02/23 14:31:09;;;;;;;1.33;1.23;;;8.90;89.40;;;;;;4949902;28;20238;-66
2024/02/23 14:33:34;;;;;;;1.00;0.90;;;8.90;89.50;;;;;;4947042;28;20270;-67
2024/02/23 14:36:00;;;;;;;1.10;1.00;;;8.90;90.00;;;;;;4950242;28;20188;-67
2024/02/23 14:38:25;;;;;;;1.87;1.87;;;8.90;89.80;;;;;;4950145;28;20238;-66
2024/02/23 14:40:51;;;;;;;1.60;1.50;;;8.90;89.60;;;;;;4950523;28;20204;-66
2024/02/23 14:43:16;;;;;;;1.20;1.10;;;8.90;89.70;;;;;;4949346;28;20258;-69
2024/02/23 14:45:42;;;;;;;1.07;0.97;;;8.80;89.20;;;;;;4950154;28;20635;-67
2024/02/23 14:48:08;;;;;;;1.10;1.00;;;8.80;89.00;;;;;;4959410;28;20184;-67
2024/02/23 14:50:33;;;;;;;1.17;1.07;;;8.80;89.10;;;;;;4948821;28;20206;-67
2024/02/23 14:52:59;;;;;;;0.83;0.73;;;8.80;89.20;;;;;;4945437;28;20258;-67
2024/02/23 14:55:25;;;;;;;0.90;0.80;;;8.70;89.40;;;;;;4955957;28;20321;-67
2024/02/23 14:57:51;;;;;;;0.80;0.70;;;8.70;89.40;;;;;;4953954;28;20426;-66
2024/02/23 15:00:17;;;;;;;1.03;0.93;;;8.70;89.30;;;;;;4953500;28;20179;-69
2024/02/23 15:02:42;;;;;;;0.90;0.80;;;8.70;88.90;;;;;;4955036;28;20665;-68
2024/02/23 15:05:08;;;;;;;0.90;0.80;;;8.60;88.50;;;;;;4953245;28;20458;-67
2024/02/23 15:07:34;;;;;;;5.50;1.23;;;8.60;88.50;;;;;;4947998;28;20182;-68
2024/02/23 15:10:05;;;;;;;1.00;0.90;;;8.60;88.70;;;;;;4947912;28;20191;-69
2024/02/23 15:12:31;;;;;;;1.00;1.00;;;8.50;88.40;;;;;;4952487;28;20541;-70
2024/02/23 15:14:57;;;;;;;3.33;2.20;;;8.40;88.10;;;;;;4957416;28;20427;-67
2024/02/23 15:17:22;;;;;;;0.90;0.80;;;8.40;88.10;;;;;;4958000;28;20850;-67
2024/02/23 15:19:48;;;;;;;1.40;1.30;;;8.40;88.40;;;;;;4949443;28;20270;-67
2024/02/23 15:22:14;;;;;;;1.00;0.90;;;8.40;88.60;;;;;;4945836;28;20226;-68
2024/02/23 15:24:42;;;;;;;1.00;0.90;;;8.40;88.70;;;;;;4951878;28;20667;-68
2024/02/23 15:27:10;;;;;;;2.60;2.07;;;8.30;89.20;;;;;;4951503;28;21077;-67
2024/02/23 15:29:36;;;;;;;1.10;1.00;;;8.30;89.30;;;;;;4951765;28;20478;-68
2024/02/23 15:32:02;;;;;;;0.90;0.80;;;8.30;88.90;;;;;;4950387;28;20466;-68
2024/02/23 15:34:27;;;;;;;1.00;0.90;;;8.30;88.50;;;;;;4953090;28;20175;-68
2024/02/23 15:36:53;;;;;;;1.00;0.90;;;8.30;89.00;;;;;;4960133;28;20218;-69
2024/02/23 15:39:19;;;;;;;1.73;1.63;;;8.20;89.30;;;;;;4955869;28;20181;-68
2024/02/23 15:41:45;;;;;;;1.67;0.90;;;8.20;89.30;;;;;;4952503;28;20810;-68
2024/02/23 15:44:11;;;;;;;0.90;0.80;;;8.20;89.60;;;;;;4949986;28;20179;-69
2024/02/23 15:46:36;;;;;;;1.67;1.07;;;8.20;89.60;;;;;;4944609;28;20188;-68
2024/02/23 15:49:02;;;;;;;0.70;0.70;;;8.20;89.70;;;;;;4948548;28;20187;-69
2024/02/23 15:51:33;;;;;;;1.23;1.20;;;8.10;89.90;;;;;;4948680;28;20207;-70
2024/02/23 15:53:59;;;;;;;1.00;0.90;;;8.10;90.00;;;;;;4950833;28;20191;-69
2024/02/23 15:56:24;;;;;;;1.43;1.37;;;8.10;90.20;;;;;;4954456;28;20433;-70
2024/02/23 15:58:50;;;;;;;1.10;1.00;;;8.00;90.50;;;;;;4951691;28;20430;-70
2024/02/23 16:01:15;;;;;;;1.73;1.63;;;8.00;90.70;;;;;;4951183;28;20195;-70
2024/02/23 16:03:41;;;;;;;0.90;0.80;;;8.00;91.00;;;;;;4952025;28;20199;-69
2024/02/23 16:06:06;;;;;;;1.00;0.90;;;7.90;91.30;;;;;;4957314;28;20545;-70
2024/02/23 16:08:43;;;;;;;1.00;0.90;;;7.90;91.60;;;;;;4952134;28;20679;-70
2024/02/23 16:11:13;;;;;;;1.03;0.93;;;7.90;92.00;;;;;;4950845;28;20297;-70
2024/02/23 16:13:42;;;;;;;4.73;1.47;;;7.90;92.00;;;;;;4950561;28;20480;-70
2024/02/23 16:16:09;;;;;;;1.00;0.90;;;7.90;92.30;;;;;;4951867;28;20969;-70
2024/02/23 16:18:35;;;;;;;0.90;0.80;;;7.80;92.00;;;;;;4951791;28;20481;-70
2024/02/23 16:21:01;;;;;;;0.90;0.80;;;7.80;92.00;;;;;;4947410;28;20458;-70
2024/02/23 16:23:27;;;;;;;1.13;1.03;;;7.80;92.30;;;;;;4949078;28;20719;-70
2024/02/23 16:25:54;;;;;;;0.93;0.83;;;7.80;91.90;;;;;;4949025;28;21022;-69
2024/02/23 16:28:20;;;;;;;1.00;0.90;;;7.80;92.10;;;;;;4956249;28;20414;-69
2024/02/23 16:30:45;;;;;;;1.10;1.00;;;7.70;92.00;;;;;;4950136;28;21040;-69
2024/02/23 16:33:11;;;;;;;1.50;1.40;;;7.70;91.90;;;;;;4954032;28;20218;-69
2024/02/23 16:35:36;;;;;;;1.00;0.90;;;7.70;92.20;;;;;;4952715;28;20187;-69
2024/02/23 16:38:02;;;;;;;1.10;1.00;;;7.70;92.10;;;;;;4955599;28;20246;-67
2024/02/23 16:40:27;;;;;;;1.13;1.03;;;7.70;91.50;;;;;;4951500;28;20199;-69
2024/02/23 16:42:55;;;;;;;0.90;0.80;;;7.70;91.60;;;;;;4951554;28;20183;-69
2024/02/23 16:45:21;;;;;;;1.30;1.20;;;7.70;91.60;;;;;;4950381;28;20191;-69
2024/02/23 16:47:46;;;;;;;5.80;1.10;;;7.60;91.80;;;;;;4949813;28;20429;-69
2024/02/23 16:50:12;;;;;;;0.90;0.80;;;7.60;91.90;;;;;;4953679;28;20225;-69
2024/02/23 16:52:38;;;;;;;0.90;0.80;;;7.60;92.10;;;;;;4951766;28;20683;-69
2024/02/23 16:55:05;;;;;;;1.00;0.90;;;7.50;92.50;;;;;;4949901;28;20191;-70
2024/02/23 16:57:31;;;;;;;0.90;0.80;;;7.50;92.50;;;;;;4954495;28;20445;-69
2024/02/23 16:59:56;;;;;;;0.90;0.80;;;7.40;92.40;;;;;;4950004;28;20415;-70
2024/02/23 17:02:22;;;;;;;1.00;0.90;;;7.40;92.70;;;;;;4958700;28;20213;-70
2024/02/23 17:04:47;;;;;;;1.00;0.90;;;7.40;92.70;;;;;;4949769;28;20183;-69
2024/02/23 17:07:13;;;;;;;1.00;0.90;;;7.30;93.10;;;;;;4957747;28;20221;-70
2024/02/23 17:09:38;;;;;;;2.60;1.10;;;7.30;93.10;;;;;;4951667;28;20255;-70
2024/02/23 17:12:05;;;;;;;1.10;1.00;;;7.30;93.30;;;;;;4955131;28;20234;-69
2024/02/23 17:14:30;;;;;;;1.00;0.90;;;7.20;93.50;;;;;;4955125;28;20218;-70
2024/02/23 17:16:56;;;;;;;1.20;1.10;;;7.20;93.70;;;;;;4949704;28;20554;-70
2024/02/23 17:19:23;;;;;;;1.37;1.27;;;7.20;93.40;;;;;;4953063;28;20189;-69
2024/02/23 17:21:48;;;;;;;1.00;0.90;;;7.20;93.70;;;;;;4951520;28;20987;-69
2024/02/23 17:24:14;;;;;;;1.23;1.13;;;7.10;93.80;;;;;;4953319;28;20473;-69
2024/02/23 17:26:49;;;;;;;1.00;0.90;;;7.10;93.90;;;;;;4949458;28;20416;-69
2024/02/23 17:29:14;;;;;;;1.00;0.90;;;7.10;94.00;;;;;;4951607;28;20198;-70
2024/02/23 17:31:40;;;;;;;1.00;0.90;;;7.10;94.20;;;;;;4952608;28;20454;-70
2024/02/23 17:34:05;;;;;;;1.13;1.03;;;7.00;94.40;;;;;;4948966;28;20187;-70
2024/02/23 17:36:31;;;;;;;1.40;1.30;;;7.00;94.80;;;;;;4950544;28;20175;-70
2024/02/23 17:38:56;;;;;;;1.80;1.70;;;7.00;95.10;;;;;;4949481;28;20180;-70
2024/02/23 17:41:22;;;;;;;1.10;1.00;;;6.90;95.30;;;;;;4950577;28;20199;-70
2024/02/23 17:43:47;;;;;;;0.90;0.80;;;6.90;95.50;;;;;;4950534;28;20187;-70
2024/02/23 17:46:13;;;;;;;1.10;1.00;;;6.90;95.70;;;;;;4952615;28;20560;-70
2024/02/23 17:48:39;;;;;;;2.07;1.93;;;6.90;95.90;;;;;;4946553;28;20187;-70
2024/02/23 17:51:04;;;;;;;1.50;1.40;;;6.80;95.90;;;;;;4948510;28;20838;-70
2024/02/23 17:53:30;;;;;;;1.00;0.90;;;6.70;96.20;;;;;;4951655;28;20207;-70
2024/02/23 17:55:57;;;;;;;3.13;1.53;;;6.60;96.50;;;;;;4949032;28;20179;-71